sensor_id;sensor_type;location;lat;lon;timestamp;P1;durP1;ratioP1;P2;durP2;ratioP2
52124;SDS011;38119;52.710;6.398;2023-08-01T00:00:11;14.80;;;5.88;;
52124;SDS011;38119;52.710;6.398;2023-08-01T00:02:37;12.88;;;5.65;;
52124;SDS011;38119;52.710;6.398;2023-08-01T00:05:14;13.00;;;5.03;;
52124;SDS011;38119;52.710;6.398;2023-08-01T00:07:43;14.65;;;5.65;;
52124;SDS011;38119;52.710;6.398;2023-08-01T00:10:09;11.23;;;5.13;;
52124;SDS011;38119;52.710;6.398;2023-08-01T00:12:35;11.15;;;5.05;;
52124;SDS011;38119;52.710;6.398;2023-08-01T00:15:04;11.82;;;4.78;;
52124;SDS011;38119;52.710;6.398;2023-08-01T00:17:31;10.13;;;4.72;;
52124;SDS011;38119;52.710;6.398;2023-08-01T00:19:56;17.52;;;5.63;;
52124;SDS011;38119;52.710;6.398;2023-08-01T00:22:25;15.18;;;4.82;;
52124;SDS011;38119;52.710;6.398;2023-08-01T00:24:54;11.27;;;4.57;;
52124;SDS011;38119;52.710;6.398;2023-08-01T00:29:52;16.13;;;4.45;;
52124;SDS011;38119;52.710;6.398;2023-08-01T00:32:25;12.30;;;4.40;;
52124;SDS011;38119;52.710;6.398;2023-08-01T00:35:01;14.05;;;4.72;;
52124;SDS011;38119;52.710;6.398;2023-08-01T00:37:45;12.48;;;4.72;;
52124;SDS011;38119;52.710;6.398;2023-08-01T00:40:17;13.85;;;4.55;;
52124;SDS011;38119;52.710;6.398;2023-08-01T00:42:52;12.05;;;4.80;;
52124;SDS011;38119;52.710;6.398;2023-08-01T00:45:22;11.60;;;4.68;;
52124;SDS011;38119;52.710;6.398;2023-08-01T00:47:58;10.25;;;4.07;;
52124;SDS011;38119;52.710;6.398;2023-08-01T00:50:23;12.77;;;4.32;;
52124;SDS011;38119;52.710;6.398;2023-08-01T00:52:50;13.60;;;4.18;;
52124;SDS011;38119;52.710;6.398;2023-08-01T00:55:17;10.65;;;5.30;;
52124;SDS011;38119;52.710;6.398;2023-08-01T00:57:44;12.55;;;5.10;;
52124;SDS011;38119;52.710;6.398;2023-08-01T01:00:10;8.30;;;4.47;;
52124;SDS011;38119;52.710;6.398;2023-08-01T01:02:36;9.25;;;4.43;;
52124;SDS011;38119;52.710;6.398;2023-08-01T01:05:02;12.52;;;4.90;;
52124;SDS011;38119;52.710;6.398;2023-08-01T01:07:28;10.45;;;4.90;;
52124;SDS011;38119;52.710;6.398;2023-08-01T01:09:55;15.07;;;5.57;;
52124;SDS011;38119;52.710;6.398;2023-08-01T01:12:21;14.63;;;5.70;;
52124;SDS011;38119;52.710;6.398;2023-08-01T01:14:47;10.68;;;5.78;;
52124;SDS011;38119;52.710;6.398;2023-08-01T01:17:12;12.90;;;5.88;;
52124;SDS011;38119;52.710;6.398;2023-08-01T01:19:38;13.60;;;5.85;;
52124;SDS011;38119;52.710;6.398;2023-08-01T01:22:04;16.55;;;6.50;;
52124;SDS011;38119;52.710;6.398;2023-08-01T01:24:31;16.83;;;5.97;;
52124;SDS011;38119;52.710;6.398;2023-08-01T01:26:58;12.60;;;6.38;;
52124;SDS011;38119;52.710;6.398;2023-08-01T01:29:25;14.65;;;5.78;;
52124;SDS011;38119;52.710;6.398;2023-08-01T01:31:52;14.07;;;6.18;;
52124;SDS011;38119;52.710;6.398;2023-08-01T01:34:18;14.25;;;6.22;;
52124;SDS011;38119;52.710;6.398;2023-08-01T01:36:45;15.80;;;6.55;;
52124;SDS011;38119;52.710;6.398;2023-08-01T01:39:10;15.93;;;6.55;;
52124;SDS011;38119;52.710;6.398;2023-08-01T01:41:36;11.48;;;5.78;;
52124;SDS011;38119;52.710;6.398;2023-08-01T01:44:01;15.15;;;5.82;;
52124;SDS011;38119;52.710;6.398;2023-08-01T01:46:27;13.88;;;5.43;;
52124;SDS011;38119;52.710;6.398;2023-08-01T01:48:52;17.48;;;6.00;;
52124;SDS011;38119;52.710;6.398;2023-08-01T01:51:19;15.00;;;6.03;;
52124;SDS011;38119;52.710;6.398;2023-08-01T01:53:46;13.18;;;5.45;;
52124;SDS011;38119;52.710;6.398;2023-08-01T01:56:12;13.52;;;5.40;;
52124;SDS011;38119;52.710;6.398;2023-08-01T01:58:37;14.43;;;6.03;;
52124;SDS011;38119;52.710;6.398;2023-08-01T02:01:03;13.10;;;5.50;;
52124;SDS011;38119;52.710;6.398;2023-08-01T02:03:28;13.32;;;5.22;;
52124;SDS011;38119;52.710;6.398;2023-08-01T02:05:54;14.05;;;5.50;;
52124;SDS011;38119;52.710;6.398;2023-08-01T02:08:20;11.07;;;5.20;;
52124;SDS011;38119;52.710;6.398;2023-08-01T02:10:45;18.10;;;5.50;;
52124;SDS011;38119;52.710;6.398;2023-08-01T02:13:11;9.98;;;5.50;;
52124;SDS011;38119;52.710;6.398;2023-08-01T02:15:36;11.05;;;5.38;;
52124;SDS011;38119;52.710;6.398;2023-08-01T02:18:02;11.63;;;5.45;;
52124;SDS011;38119;52.710;6.398;2023-08-01T02:20:28;17.85;;;5.53;;
52124;SDS011;38119;52.710;6.398;2023-08-01T02:22:54;13.63;;;5.00;;
52124;SDS011;38119;52.710;6.398;2023-08-01T02:25:19;13.60;;;5.13;;
52124;SDS011;38119;52.710;6.398;2023-08-01T02:27:45;13.38;;;5.13;;
52124;SDS011;38119;52.710;6.398;2023-08-01T02:30:11;12.07;;;5.00;;
52124;SDS011;38119;52.710;6.398;2023-08-01T02:32:36;12.55;;;5.68;;
52124;SDS011;38119;52.710;6.398;2023-08-01T02:35:02;13.88;;;5.55;;
52124;SDS011;38119;52.710;6.398;2023-08-01T02:37:28;11.43;;;5.55;;
52124;SDS011;38119;52.710;6.398;2023-08-01T02:39:56;12.65;;;5.63;;
52124;SDS011;38119;52.710;6.398;2023-08-01T02:42:22;11.35;;;4.93;;
52124;SDS011;38119;52.710;6.398;2023-08-01T02:44:47;15.93;;;5.22;;
52124;SDS011;38119;52.710;6.398;2023-08-01T02:47:13;10.88;;;5.20;;
52124;SDS011;38119;52.710;6.398;2023-08-01T02:49:38;12.63;;;4.88;;
52124;SDS011;38119;52.710;6.398;2023-08-01T02:52:04;14.65;;;4.93;;
52124;SDS011;38119;52.710;6.398;2023-08-01T02:54:30;14.40;;;4.72;;
52124;SDS011;38119;52.710;6.398;2023-08-01T02:56:56;15.98;;;5.72;;
52124;SDS011;38119;52.710;6.398;2023-08-01T02:59:21;12.95;;;4.82;;
52124;SDS011;38119;52.710;6.398;2023-08-01T03:01:47;11.18;;;4.97;;
52124;SDS011;38119;52.710;6.398;2023-08-01T03:04:12;14.07;;;4.63;;
52124;SDS011;38119;52.710;6.398;2023-08-01T03:06:38;17.60;;;5.35;;
52124;SDS011;38119;52.710;6.398;2023-08-01T03:09:04;12.75;;;4.60;;
52124;SDS011;38119;52.710;6.398;2023-08-01T03:11:33;12.63;;;5.10;;
52124;SDS011;38119;52.710;6.398;2023-08-01T03:14:04;13.88;;;4.95;;
52124;SDS011;38119;52.710;6.398;2023-08-01T03:16:30;16.40;;;5.60;;
52124;SDS011;38119;52.710;6.398;2023-08-01T03:18:56;14.07;;;5.40;;
52124;SDS011;38119;52.710;6.398;2023-08-01T03:21:22;13.70;;;5.30;;
52124;SDS011;38119;52.710;6.398;2023-08-01T03:23:51;13.18;;;5.50;;
52124;SDS011;38119;52.710;6.398;2023-08-01T03:26:17;13.10;;;5.63;;
52124;SDS011;38119;52.710;6.398;2023-08-01T03:28:43;15.07;;;5.80;;
52124;SDS011;38119;52.710;6.398;2023-08-01T03:31:09;15.68;;;5.18;;
52124;SDS011;38119;52.710;6.398;2023-08-01T03:33:34;14.80;;;5.93;;
52124;SDS011;38119;52.710;6.398;2023-08-01T03:36:00;17.02;;;5.93;;
52124;SDS011;38119;52.710;6.398;2023-08-01T03:38:25;17.55;;;5.55;;
52124;SDS011;38119;52.710;6.398;2023-08-01T03:40:51;10.05;;;4.50;;
52124;SDS011;38119;52.710;6.398;2023-08-01T03:43:17;5.78;;;3.05;;
52124;SDS011;38119;52.710;6.398;2023-08-01T03:45:48;8.07;;;3.00;;
52124;SDS011;38119;52.710;6.398;2023-08-01T03:48:14;8.90;;;3.15;;
52124;SDS011;38119;52.710;6.398;2023-08-01T03:50:39;5.13;;;2.60;;
52124;SDS011;38119;52.710;6.398;2023-08-01T03:53:05;5.35;;;2.35;;
52124;SDS011;38119;52.710;6.398;2023-08-01T03:55:32;7.25;;;3.10;;
52124;SDS011;38119;52.710;6.398;2023-08-01T03:57:57;6.65;;;2.63;;
52124;SDS011;38119;52.710;6.398;2023-08-01T04:00:23;6.22;;;2.78;;
52124;SDS011;38119;52.710;6.398;2023-08-01T04:02:49;4.93;;;2.40;;
52124;SDS011;38119;52.710;6.398;2023-08-01T04:05:15;7.93;;;2.78;;
52124;SDS011;38119;52.710;6.398;2023-08-01T04:07:41;4.15;;;2.25;;
52124;SDS011;38119;52.710;6.398;2023-08-01T04:10:07;6.07;;;2.22;;
52124;SDS011;38119;52.710;6.398;2023-08-01T04:12:33;6.25;;;2.22;;
52124;SDS011;38119;52.710;6.398;2023-08-01T04:14:59;3.42;;;2.20;;
52124;SDS011;38119;52.710;6.398;2023-08-01T04:17:25;4.22;;;2.00;;
52124;SDS011;38119;52.710;6.398;2023-08-01T04:19:52;4.60;;;2.00;;
52124;SDS011;38119;52.710;6.398;2023-08-01T04:22:18;6.07;;;2.25;;
52124;SDS011;38119;52.710;6.398;2023-08-01T04:24:43;2.95;;;1.77;;
52124;SDS011;38119;52.710;6.398;2023-08-01T04:27:09;4.28;;;2.10;;
52124;SDS011;38119;52.710;6.398;2023-08-01T04:29:35;6.70;;;2.47;;
52124;SDS011;38119;52.710;6.398;2023-08-01T04:32:00;4.10;;;2.10;;
52124;SDS011;38119;52.710;6.398;2023-08-01T04:34:26;5.30;;;2.20;;
52124;SDS011;38119;52.710;6.398;2023-08-01T04:36:51;4.38;;;2.03;;
52124;SDS011;38119;52.710;6.398;2023-08-01T04:39:17;6.30;;;2.28;;
52124;SDS011;38119;52.710;6.398;2023-08-01T04:41:43;3.90;;;1.85;;
52124;SDS011;38119;52.710;6.398;2023-08-01T04:44:08;5.32;;;2.10;;
52124;SDS011;38119;52.710;6.398;2023-08-01T04:46:34;3.47;;;2.10;;
52124;SDS011;38119;52.710;6.398;2023-08-01T04:48:59;5.53;;;2.35;;
52124;SDS011;38119;52.710;6.398;2023-08-01T04:51:25;4.03;;;2.00;;
52124;SDS011;38119;52.710;6.398;2023-08-01T04:53:51;5.72;;;1.95;;
52124;SDS011;38119;52.710;6.398;2023-08-01T04:56:17;5.70;;;2.10;;
52124;SDS011;38119;52.710;6.398;2023-08-01T04:58:42;5.47;;;2.03;;
52124;SDS011;38119;52.710;6.398;2023-08-01T05:01:11;4.95;;;1.85;;
52124;SDS011;38119;52.710;6.398;2023-08-01T05:03:37;7.18;;;2.10;;
52124;SDS011;38119;52.710;6.398;2023-08-01T05:06:06;5.65;;;2.05;;
52124;SDS011;38119;52.710;6.398;2023-08-01T05:08:33;3.67;;;2.20;;
52124;SDS011;38119;52.710;6.398;2023-08-01T05:10:59;3.83;;;2.40;;
52124;SDS011;38119;52.710;6.398;2023-08-01T05:13:25;6.65;;;2.25;;
52124;SDS011;38119;52.710;6.398;2023-08-01T05:15:51;6.32;;;2.13;;
52124;SDS011;38119;52.710;6.398;2023-08-01T05:18:17;6.15;;;2.30;;
52124;SDS011;38119;52.710;6.398;2023-08-01T05:20:43;6.10;;;2.50;;
52124;SDS011;38119;52.710;6.398;2023-08-01T05:23:09;6.82;;;2.58;;
52124;SDS011;38119;52.710;6.398;2023-08-01T05:25:38;6.57;;;2.83;;
52124;SDS011;38119;52.710;6.398;2023-08-01T05:28:03;5.18;;;2.95;;
52124;SDS011;38119;52.710;6.398;2023-08-01T05:30:29;5.18;;;2.85;;
52124;SDS011;38119;52.710;6.398;2023-08-01T05:32:55;7.03;;;3.08;;
52124;SDS011;38119;52.710;6.398;2023-08-01T05:35:20;7.88;;;2.70;;
52124;SDS011;38119;52.710;6.398;2023-08-01T05:37:49;5.18;;;2.85;;
52124;SDS011;38119;52.710;6.398;2023-08-01T05:40:15;5.35;;;2.88;;
52124;SDS011;38119;52.710;6.398;2023-08-01T05:42:41;6.93;;;3.10;;
52124;SDS011;38119;52.710;6.398;2023-08-01T05:45:07;7.43;;;2.78;;
52124;SDS011;38119;52.710;6.398;2023-08-01T05:47:33;5.35;;;2.53;;
52124;SDS011;38119;52.710;6.398;2023-08-01T05:50:00;7.35;;;2.47;;
52124;SDS011;38119;52.710;6.398;2023-08-01T05:52:26;4.78;;;2.58;;
52124;SDS011;38119;52.710;6.398;2023-08-01T05:54:51;6.72;;;2.40;;
52124;SDS011;38119;52.710;6.398;2023-08-01T05:57:17;6.47;;;2.60;;
52124;SDS011;38119;52.710;6.398;2023-08-01T05:59:43;5.45;;;2.58;;
52124;SDS011;38119;52.710;6.398;2023-08-01T06:02:08;7.45;;;2.80;;
52124;SDS011;38119;52.710;6.398;2023-08-01T06:04:34;9.13;;;2.55;;
52124;SDS011;38119;52.710;6.398;2023-08-01T06:06:59;5.82;;;2.75;;
52124;SDS011;38119;52.710;6.398;2023-08-01T06:09:25;6.00;;;2.65;;
52124;SDS011;38119;52.710;6.398;2023-08-01T06:11:51;5.45;;;2.40;;
52124;SDS011;38119;52.710;6.398;2023-08-01T06:14:16;7.53;;;2.55;;
52124;SDS011;38119;52.710;6.398;2023-08-01T06:16:42;4.40;;;2.22;;
52124;SDS011;38119;52.710;6.398;2023-08-01T06:19:08;8.05;;;2.22;;
52124;SDS011;38119;52.710;6.398;2023-08-01T06:21:33;8.27;;;2.35;;
52124;SDS011;38119;52.710;6.398;2023-08-01T06:23:59;8.32;;;2.30;;
52124;SDS011;38119;52.710;6.398;2023-08-01T06:26:25;6.13;;;2.60;;
52124;SDS011;38119;52.710;6.398;2023-08-01T06:28:51;5.10;;;2.05;;
52124;SDS011;38119;52.710;6.398;2023-08-01T06:31:18;5.75;;;2.38;;
52124;SDS011;38119;52.710;6.398;2023-08-01T06:33:50;5.47;;;2.17;;
52124;SDS011;38119;52.710;6.398;2023-08-01T06:36:15;5.65;;;2.20;;
52124;SDS011;38119;52.710;6.398;2023-08-01T06:38:42;3.83;;;1.90;;
52124;SDS011;38119;52.710;6.398;2023-08-01T06:41:08;5.05;;;2.00;;
52124;SDS011;38119;52.710;6.398;2023-08-01T06:43:34;7.72;;;2.15;;
52124;SDS011;38119;52.710;6.398;2023-08-01T06:45:59;5.88;;;2.33;;
52124;SDS011;38119;52.710;6.398;2023-08-01T06:48:25;7.32;;;1.90;;
52124;SDS011;38119;52.710;6.398;2023-08-01T06:50:51;7.28;;;2.00;;
52124;SDS011;38119;52.710;6.398;2023-08-01T06:53:16;3.63;;;2.22;;
52124;SDS011;38119;52.710;6.398;2023-08-01T06:55:42;8.38;;;2.42;;
52124;SDS011;38119;52.710;6.398;2023-08-01T06:58:08;5.93;;;2.15;;
52124;SDS011;38119;52.710;6.398;2023-08-01T07:00:33;4.30;;;2.10;;
52124;SDS011;38119;52.710;6.398;2023-08-01T07:02:59;5.45;;;2.08;;
52124;SDS011;38119;52.710;6.398;2023-08-01T07:05:24;6.50;;;2.30;;
52124;SDS011;38119;52.710;6.398;2023-08-01T07:07:50;5.38;;;2.25;;
52124;SDS011;38119;52.710;6.398;2023-08-01T07:10:15;7.93;;;2.60;;
52124;SDS011;38119;52.710;6.398;2023-08-01T07:12:41;6.88;;;2.03;;
52124;SDS011;38119;52.710;6.398;2023-08-01T07:15:07;5.88;;;2.10;;
52124;SDS011;38119;52.710;6.398;2023-08-01T07:17:33;6.82;;;2.30;;
52124;SDS011;38119;52.710;6.398;2023-08-01T07:19:59;5.28;;;2.45;;
52124;SDS011;38119;52.710;6.398;2023-08-01T07:22:24;8.85;;;2.90;;
52124;SDS011;38119;52.710;6.398;2023-08-01T07:24:53;6.88;;;2.47;;
52124;SDS011;38119;52.710;6.398;2023-08-01T07:27:20;6.43;;;2.70;;
52124;SDS011;38119;52.710;6.398;2023-08-01T07:29:46;7.28;;;2.50;;
52124;SDS011;38119;52.710;6.398;2023-08-01T07:32:11;6.65;;;2.70;;
52124;SDS011;38119;52.710;6.398;2023-08-01T07:34:37;8.43;;;2.28;;
52124;SDS011;38119;52.710;6.398;2023-08-01T07:37:03;8.25;;;2.88;;
52124;SDS011;38119;52.710;6.398;2023-08-01T07:39:28;7.72;;;2.72;;
52124;SDS011;38119;52.710;6.398;2023-08-01T07:41:55;11.10;;;3.08;;
52124;SDS011;38119;52.710;6.398;2023-08-01T07:44:21;6.60;;;2.60;;
52124;SDS011;38119;52.710;6.398;2023-08-01T07:46:47;6.70;;;2.60;;
52124;SDS011;38119;52.710;6.398;2023-08-01T07:49:12;8.57;;;2.78;;
52124;SDS011;38119;52.710;6.398;2023-08-01T07:51:38;7.72;;;2.70;;
52124;SDS011;38119;52.710;6.398;2023-08-01T07:54:03;7.97;;;2.90;;
52124;SDS011;38119;52.710;6.398;2023-08-01T07:56:29;9.13;;;2.90;;
52124;SDS011;38119;52.710;6.398;2023-08-01T07:58:55;6.60;;;2.78;;
52124;SDS011;38119;52.710;6.398;2023-08-01T08:01:20;4.95;;;2.53;;
52124;SDS011;38119;52.710;6.398;2023-08-01T08:03:46;7.97;;;3.05;;
52124;SDS011;38119;52.710;6.398;2023-08-01T08:06:12;9.52;;;3.08;;
52124;SDS011;38119;52.710;6.398;2023-08-01T08:08:37;7.97;;;2.90;;
52124;SDS011;38119;52.710;6.398;2023-08-01T08:11:03;7.75;;;3.25;;
52124;SDS011;38119;52.710;6.398;2023-08-01T08:13:29;8.15;;;3.03;;
52124;SDS011;38119;52.710;6.398;2023-08-01T08:15:55;9.77;;;3.17;;
52124;SDS011;38119;52.710;6.398;2023-08-01T08:18:24;13.25;;;3.70;;
52124;SDS011;38119;52.710;6.398;2023-08-01T08:20:50;7.10;;;2.85;;
52124;SDS011;38119;52.710;6.398;2023-08-01T08:23:15;9.55;;;3.42;;
52124;SDS011;38119;52.710;6.398;2023-08-01T08:25:41;7.68;;;3.42;;
52124;SDS011;38119;52.710;6.398;2023-08-01T08:28:09;10.20;;;3.50;;
52124;SDS011;38119;52.710;6.398;2023-08-01T08:30:36;12.38;;;3.55;;
52124;SDS011;38119;52.710;6.398;2023-08-01T08:33:03;11.23;;;3.80;;
52124;SDS011;38119;52.710;6.398;2023-08-01T08:35:35;11.07;;;3.58;;
52124;SDS011;38119;52.710;6.398;2023-08-01T08:38:02;8.40;;;3.55;;
52124;SDS011;38119;52.710;6.398;2023-08-01T08:40:31;12.20;;;3.65;;
52124;SDS011;38119;52.710;6.398;2023-08-01T08:42:59;13.35;;;3.72;;
52124;SDS011;38119;52.710;6.398;2023-08-01T08:45:28;9.90;;;4.55;;
52124;SDS011;38119;52.710;6.398;2023-08-01T08:47:59;11.95;;;3.88;;
52124;SDS011;38119;52.710;6.398;2023-08-01T08:50:27;19.20;;;4.60;;
52124;SDS011;38119;52.710;6.398;2023-08-01T08:52:56;11.95;;;3.38;;
52124;SDS011;38119;52.710;6.398;2023-08-01T08:55:22;9.77;;;3.47;;
52124;SDS011;38119;52.710;6.398;2023-08-01T08:57:51;10.43;;;3.53;;
52124;SDS011;38119;52.710;6.398;2023-08-01T09:00:17;10.27;;;3.22;;
52124;SDS011;38119;52.710;6.398;2023-08-01T09:02:44;11.82;;;3.80;;
52124;SDS011;38119;52.710;6.398;2023-08-01T09:05:10;10.55;;;3.50;;
52124;SDS011;38119;52.710;6.398;2023-08-01T09:07:36;12.48;;;4.07;;
52124;SDS011;38119;52.710;6.398;2023-08-01T09:10:06;11.73;;;3.80;;
52124;SDS011;38119;52.710;6.398;2023-08-01T09:12:33;13.52;;;4.50;;
52124;SDS011;38119;52.710;6.398;2023-08-01T09:15:00;13.43;;;3.42;;
52124;SDS011;38119;52.710;6.398;2023-08-01T09:17:26;9.85;;;3.65;;
52124;SDS011;38119;52.710;6.398;2023-08-01T09:19:55;8.73;;;3.47;;
52124;SDS011;38119;52.710;6.398;2023-08-01T09:22:28;9.50;;;3.33;;
52124;SDS011;38119;52.710;6.398;2023-08-01T09:24:53;10.10;;;3.42;;
52124;SDS011;38119;52.710;6.398;2023-08-01T09:27:20;8.95;;;3.25;;
52124;SDS011;38119;52.710;6.398;2023-08-01T09:29:47;10.13;;;3.83;;
52124;SDS011;38119;52.710;6.398;2023-08-01T09:32:13;9.68;;;3.42;;
52124;SDS011;38119;52.710;6.398;2023-08-01T09:34:40;11.38;;;3.90;;
52124;SDS011;38119;52.710;6.398;2023-08-01T09:37:07;11.68;;;3.63;;
52124;SDS011;38119;52.710;6.398;2023-08-01T09:39:33;11.38;;;3.78;;
52124;SDS011;38119;52.710;6.398;2023-08-01T09:41:59;10.40;;;3.65;;
52124;SDS011;38119;52.710;6.398;2023-08-01T09:44:26;11.85;;;4.20;;
52124;SDS011;38119;52.710;6.398;2023-08-01T09:47:00;11.38;;;3.90;;
52124;SDS011;38119;52.710;6.398;2023-08-01T09:49:27;10.50;;;4.07;;
52124;SDS011;38119;52.710;6.398;2023-08-01T09:51:53;11.90;;;4.13;;
52124;SDS011;38119;52.710;6.398;2023-08-01T09:54:20;11.50;;;4.38;;
52124;SDS011;38119;52.710;6.398;2023-08-01T09:56:47;8.27;;;3.90;;
52124;SDS011;38119;52.710;6.398;2023-08-01T09:59:24;12.60;;;4.40;;
52124;SDS011;38119;52.710;6.398;2023-08-01T10:01:51;12.30;;;4.07;;
52124;SDS011;38119;52.710;6.398;2023-08-01T10:04:29;9.02;;;3.30;;
52124;SDS011;38119;52.710;6.398;2023-08-01T10:07:29;7.50;;;2.40;;
52124;SDS011;38119;52.710;6.398;2023-08-01T10:09:49;7.28;;;2.67;;
52124;SDS011;38119;52.710;6.398;2023-08-01T10:12:15;6.70;;;2.47;;
52124;SDS011;38119;52.710;6.398;2023-08-01T10:14:43;8.13;;;2.88;;
52124;SDS011;38119;52.710;6.398;2023-08-01T10:17:10;6.35;;;2.60;;
52124;SDS011;38119;52.710;6.398;2023-08-01T10:19:37;4.78;;;2.70;;
52124;SDS011;38119;52.710;6.398;2023-08-01T10:22:03;6.80;;;2.95;;
52124;SDS011;38119;52.710;6.398;2023-08-01T10:24:31;7.20;;;2.75;;
52124;SDS011;38119;52.710;6.398;2023-08-01T10:26:57;8.05;;;2.40;;
52124;SDS011;38119;52.710;6.398;2023-08-01T10:29:36;6.88;;;2.50;;
52124;SDS011;38119;52.710;6.398;2023-08-01T10:32:02;10.38;;;2.67;;
52124;SDS011;38119;52.710;6.398;2023-08-01T10:34:28;7.20;;;2.55;;
52124;SDS011;38119;52.710;6.398;2023-08-01T10:36:57;7.60;;;2.47;;
52124;SDS011;38119;52.710;6.398;2023-08-01T10:39:24;4.25;;;2.30;;
52124;SDS011;38119;52.710;6.398;2023-08-01T10:41:57;9.30;;;2.63;;
52124;SDS011;38119;52.710;6.398;2023-08-01T10:44:24;8.00;;;2.55;;
52124;SDS011;38119;52.710;6.398;2023-08-01T10:46:54;8.50;;;2.90;;
52124;SDS011;38119;52.710;6.398;2023-08-01T10:49:35;11.23;;;3.20;;
52124;SDS011;38119;52.710;6.398;2023-08-01T10:54:55;6.63;;;2.28;;
52124;SDS011;38119;52.710;6.398;2023-08-01T10:57:23;5.20;;;1.70;;
52124;SDS011;38119;52.710;6.398;2023-08-01T10:59:49;3.47;;;1.80;;
52124;SDS011;38119;52.710;6.398;2023-08-01T11:02:21;7.13;;;1.90;;
52124;SDS011;38119;52.710;6.398;2023-08-01T11:05:00;7.13;;;2.00;;
52124;SDS011;38119;52.710;6.398;2023-08-01T11:07:25;9.15;;;2.17;;
52124;SDS011;38119;52.710;6.398;2023-08-01T11:12:45;4.90;;;2.10;;
52124;SDS011;38119;52.710;6.398;2023-08-01T11:15:11;7.32;;;2.17;;
52124;SDS011;38119;52.710;6.398;2023-08-01T11:17:42;6.38;;;2.10;;
52124;SDS011;38119;52.710;6.398;2023-08-01T11:20:12;3.75;;;1.92;;
52124;SDS011;38119;52.710;6.398;2023-08-01T11:22:49;4.20;;;1.80;;
52124;SDS011;38119;52.710;6.398;2023-08-01T11:25:34;5.63;;;1.83;;
52124;SDS011;38119;52.710;6.398;2023-08-01T11:28:01;4.47;;;2.22;;
52124;SDS011;38119;52.710;6.398;2023-08-01T11:30:38;6.30;;;2.30;;
52124;SDS011;38119;52.710;6.398;2023-08-01T11:33:15;5.60;;;2.05;;
52124;SDS011;38119;52.710;6.398;2023-08-01T11:35:53;9.27;;;2.35;;
52124;SDS011;38119;52.710;6.398;2023-08-01T11:38:42;6.82;;;2.38;;
52124;SDS011;38119;52.710;6.398;2023-08-01T11:41:07;9.18;;;2.72;;
52124;SDS011;38119;52.710;6.398;2023-08-01T11:43:42;8.77;;;2.50;;
52124;SDS011;38119;52.710;6.398;2023-08-01T11:46:09;7.97;;;2.63;;
52124;SDS011;38119;52.710;6.398;2023-08-01T11:48:35;7.03;;;2.15;;
52124;SDS011;38119;52.710;6.398;2023-08-01T11:51:01;7.57;;;2.50;;
52124;SDS011;38119;52.710;6.398;2023-08-01T11:53:27;9.35;;;2.60;;
52124;SDS011;38119;52.710;6.398;2023-08-01T11:55:54;7.90;;;2.55;;
52124;SDS011;38119;52.710;6.398;2023-08-01T11:58:32;10.90;;;2.60;;
52124;SDS011;38119;52.710;6.398;2023-08-01T12:01:02;9.50;;;2.67;;
52124;SDS011;38119;52.710;6.398;2023-08-01T12:03:45;6.97;;;2.60;;
52124;SDS011;38119;52.710;6.398;2023-08-01T12:06:11;8.32;;;2.92;;
52124;SDS011;38119;52.710;6.398;2023-08-01T12:08:39;8.90;;;2.70;;
52124;SDS011;38119;52.710;6.398;2023-08-01T12:11:17;9.35;;;2.85;;
52124;SDS011;38119;52.710;6.398;2023-08-01T12:13:43;7.25;;;2.75;;
52124;SDS011;38119;52.710;6.398;2023-08-01T12:16:09;8.63;;;2.83;;
52124;SDS011;38119;52.710;6.398;2023-08-01T12:18:35;9.73;;;3.10;;
52124;SDS011;38119;52.710;6.398;2023-08-01T12:21:02;12.02;;;2.80;;
52124;SDS011;38119;52.710;6.398;2023-08-01T12:23:30;7.75;;;2.50;;
52124;SDS011;38119;52.710;6.398;2023-08-01T12:25:56;9.68;;;2.85;;
52124;SDS011;38119;52.710;6.398;2023-08-01T12:28:22;9.52;;;2.85;;
52124;SDS011;38119;52.710;6.398;2023-08-01T12:30:47;32.50;;;3.97;;
52124;SDS011;38119;52.710;6.398;2023-08-01T12:33:14;12.40;;;3.65;;
52124;SDS011;38119;52.710;6.398;2023-08-01T12:35:42;6.75;;;2.38;;
52124;SDS011;38119;52.710;6.398;2023-08-01T12:38:08;7.90;;;2.72;;
52124;SDS011;38119;52.710;6.398;2023-08-01T12:40:34;10.48;;;2.50;;
52124;SDS011;38119;52.710;6.398;2023-08-01T12:43:00;7.30;;;2.20;;
52124;SDS011;38119;52.710;6.398;2023-08-01T12:45:26;8.73;;;2.40;;
52124;SDS011;38119;52.710;6.398;2023-08-01T12:47:52;8.50;;;2.47;;
52124;SDS011;38119;52.710;6.398;2023-08-01T12:50:17;6.57;;;1.98;;
52124;SDS011;38119;52.710;6.398;2023-08-01T12:52:43;11.23;;;2.22;;
52124;SDS011;38119;52.710;6.398;2023-08-01T12:55:08;6.10;;;1.90;;
52124;SDS011;38119;52.710;6.398;2023-08-01T12:57:34;5.25;;;2.28;;
52124;SDS011;38119;52.710;6.398;2023-08-01T13:00:00;7.35;;;2.35;;
52124;SDS011;38119;52.710;6.398;2023-08-01T13:02:26;6.53;;;2.17;;
52124;SDS011;38119;52.710;6.398;2023-08-01T13:04:52;5.70;;;2.22;;
52124;SDS011;38119;52.710;6.398;2023-08-01T13:07:18;6.88;;;2.60;;
52124;SDS011;38119;52.710;6.398;2023-08-01T13:09:44;4.93;;;1.77;;
52124;SDS011;38119;52.710;6.398;2023-08-01T13:12:10;5.85;;;2.30;;
52124;SDS011;38119;52.710;6.398;2023-08-01T13:14:36;6.10;;;2.13;;
52124;SDS011;38119;52.710;6.398;2023-08-01T13:17:06;4.35;;;1.98;;
52124;SDS011;38119;52.710;6.398;2023-08-01T13:19:33;7.68;;;2.40;;
52124;SDS011;38119;52.710;6.398;2023-08-01T13:22:06;5.00;;;1.90;;
52124;SDS011;38119;52.710;6.398;2023-08-01T13:24:37;6.67;;;2.33;;
52124;SDS011;38119;52.710;6.398;2023-08-01T13:27:16;5.50;;;1.70;;
52124;SDS011;38119;52.710;6.398;2023-08-01T13:30:58;8.85;;;2.33;;
52124;SDS011;38119;52.710;6.398;2023-08-01T13:33:25;5.63;;;1.90;;
52124;SDS011;38119;52.710;6.398;2023-08-01T13:35:51;6.60;;;1.90;;
52124;SDS011;38119;52.710;6.398;2023-08-01T13:38:18;8.05;;;2.20;;
52124;SDS011;38119;52.710;6.398;2023-08-01T13:40:44;7.35;;;2.20;;
52124;SDS011;38119;52.710;6.398;2023-08-01T13:43:10;7.32;;;2.78;;
52124;SDS011;38119;52.710;6.398;2023-08-01T13:45:35;7.60;;;2.53;;
52124;SDS011;38119;52.710;6.398;2023-08-01T13:48:01;5.00;;;1.90;;
52124;SDS011;38119;52.710;6.398;2023-08-01T13:50:28;2.63;;;1.40;;
52124;SDS011;38119;52.710;6.398;2023-08-01T13:52:55;4.22;;;1.50;;
52124;SDS011;38119;52.710;6.398;2023-08-01T13:55:20;4.20;;;1.38;;
52124;SDS011;38119;52.710;6.398;2023-08-01T13:57:46;4.70;;;1.90;;
52124;SDS011;38119;52.710;6.398;2023-08-01T14:00:12;3.92;;;1.55;;
52124;SDS011;38119;52.710;6.398;2023-08-01T14:02:38;4.60;;;1.80;;
52124;SDS011;38119;52.710;6.398;2023-08-01T14:05:04;4.88;;;1.67;;
52124;SDS011;38119;52.710;6.398;2023-08-01T14:07:30;2.67;;;1.63;;
52124;SDS011;38119;52.710;6.398;2023-08-01T14:09:55;5.50;;;1.95;;
52124;SDS011;38119;52.710;6.398;2023-08-01T14:12:21;6.22;;;1.80;;
52124;SDS011;38119;52.710;6.398;2023-08-01T14:14:49;4.55;;;1.70;;
52124;SDS011;38119;52.710;6.398;2023-08-01T14:17:15;7.88;;;2.75;;
52124;SDS011;38119;52.710;6.398;2023-08-01T14:19:41;5.32;;;1.80;;
52124;SDS011;38119;52.710;6.398;2023-08-01T14:22:07;4.10;;;1.42;;
52124;SDS011;38119;52.710;6.398;2023-08-01T14:24:33;2.42;;;1.20;;
52124;SDS011;38119;52.710;6.398;2023-08-01T14:26:58;2.78;;;1.20;;
52124;SDS011;38119;52.710;6.398;2023-08-01T14:29:24;4.97;;;1.48;;
52124;SDS011;38119;52.710;6.398;2023-08-01T14:31:51;4.10;;;1.25;;
52124;SDS011;38119;52.710;6.398;2023-08-01T14:34:16;2.97;;;1.27;;
52124;SDS011;38119;52.710;6.398;2023-08-01T14:36:42;3.03;;;1.15;;
52124;SDS011;38119;52.710;6.398;2023-08-01T14:39:08;2.30;;;0.95;;
52124;SDS011;38119;52.710;6.398;2023-08-01T14:41:33;3.17;;;1.17;;
52124;SDS011;38119;52.710;6.398;2023-08-01T14:43:59;2.15;;;1.33;;
52124;SDS011;38119;52.710;6.398;2023-08-01T14:46:25;2.22;;;1.20;;
52124;SDS011;38119;52.710;6.398;2023-08-01T14:48:50;2.78;;;1.30;;
52124;SDS011;38119;52.710;6.398;2023-08-01T14:51:16;3.55;;;1.17;;